createdAt,value
2017-09-13T00:01:15.242Z,99684
2017-09-13T00:03:45.117Z,99681
2017-09-13T00:06:15.004Z,99685
2017-09-13T00:08:44.967Z,99685
2017-09-13T00:11:15.157Z,99684
2017-09-13T00:13:45.040Z,99677
2017-09-13T00:16:15.281Z,99656
2017-09-13T00:18:45.194Z,99668
2017-09-13T00:21:15.074Z,99666
2017-09-13T00:23:44.943Z,99661
2017-09-13T00:26:14.802Z,99663
2017-09-13T00:28:45.061Z,99647
2017-09-13T00:31:15.058Z,99643
2017-09-13T00:33:45.301Z,99639
2017-09-13T00:36:15.177Z,99636
2017-09-13T00:38:45.038Z,99638
2017-09-13T00:41:14.907Z,99632
2017-09-13T00:43:44.773Z,99633
2017-09-13T00:46:15.147Z,99629
2017-09-13T00:48:45.015Z,99634
2017-09-13T00:51:15.289Z,99635
2017-09-13T00:53:45.151Z,99638
2017-09-13T00:56:15.066Z,99624
2017-09-13T00:58:44.934Z,99630
2017-09-13T01:01:14.823Z,99626
2017-09-13T01:03:45.017Z,99629
2017-09-13T01:06:14.884Z,99615
2017-09-13T01:08:45.215Z,99615
2017-09-13T01:11:15.106Z,99600
2017-09-13T01:13:45.342Z,99597
2017-09-13T01:16:15.198Z,99592
2017-09-13T01:18:45.085Z,99593
2017-09-13T01:21:15.113Z,99591
2017-09-13T01:23:45.002Z,99595
2017-09-13T01:26:15.204Z,99584
2017-09-13T01:28:45.057Z,99576
2017-09-13T01:31:15.341Z,99585
2017-09-13T01:33:45.232Z,99573
2017-09-13T01:36:15.702Z,99570
2017-09-13T01:38:45.567Z,99566
2017-09-13T01:41:15.797Z,99565
2017-09-13T01:43:45.670Z,99561
2017-09-13T01:46:15.937Z,99554
2017-09-13T01:48:45.809Z,99541
2017-09-13T01:51:16.036Z,99541
2017-09-13T01:53:45.911Z,99523
2017-09-13T01:56:16.093Z,99521
2017-09-13T01:58:45.966Z,99522
2017-09-13T02:01:16.235Z,99518
2017-09-13T02:03:46.102Z,99510
2017-09-13T02:06:15.986Z,99500
2017-09-13T02:08:45.838Z,99494
2017-09-13T02:11:15.704Z,99485
2017-09-13T02:13:46.003Z,99481
2017-09-13T02:16:15.834Z,99474
2017-09-13T02:18:46.078Z,99475
2017-09-13T02:21:15.985Z,99468
2017-09-13T02:23:46.204Z,99458
2017-09-13T02:26:16.118Z,99441
2017-09-13T02:28:46.015Z,99435
2017-09-13T02:31:15.901Z,99422
2017-09-13T02:33:45.819Z,99402
2017-09-13T02:36:16.085Z,99399
2017-09-13T02:38:45.939Z,99391
2017-09-13T02:41:16.185Z,99394
2017-09-13T02:43:46.050Z,99395
2017-09-13T02:46:16.286Z,99387
2017-09-13T02:48:46.187Z,99382
2017-09-13T02:51:16.108Z,99373
2017-09-13T02:53:45.961Z,99368
2017-09-13T02:56:15.834Z,99360
2017-09-13T02:58:46.059Z,99376
2017-09-13T03:01:15.945Z,99365
2017-09-13T03:03:46.162Z,99352
2017-09-13T03:06:16.002Z,99357
2017-09-13T03:08:46.237Z,99328
2017-09-13T03:11:16.135Z,99310
2017-09-13T03:13:46.037Z,99305
2017-09-13T03:16:15.917Z,99305
2017-09-13T03:18:45.794Z,99298
2017-09-13T03:21:16.014Z,99305
2017-09-13T03:23:45.887Z,99300
2017-09-13T03:26:16.206Z,99308
2017-09-13T03:28:46.068Z,99299
2017-09-13T03:31:16.309Z,99293
2017-09-13T03:33:46.175Z,99294
2017-09-13T03:36:16.115Z,99299
2017-09-13T03:38:46.015Z,99294
2017-09-13T03:41:15.864Z,99277
2017-09-13T03:43:46.127Z,99266
2017-09-13T03:46:15.982Z,99249
2017-09-13T03:48:46.191Z,99239
2017-09-13T03:51:16.090Z,99231
2017-09-13T03:53:45.980Z,99218
2017-09-13T03:56:15.870Z,99236
2017-09-13T03:58:45.833Z,99213
2017-09-13T04:01:16.132Z,99213
2017-09-13T04:03:46.112Z,99214
2017-09-13T04:06:16.567Z,99225
2017-09-13T04:08:46.446Z,99213
2017-09-13T04:11:16.768Z,99208
2017-09-13T04:13:46.660Z,99202
2017-09-13T04:16:17.061Z,99198
2017-09-13T04:18:46.970Z,99201
2017-09-13T04:21:17.265Z,99188
2017-09-13T04:23:47.108Z,99173
2017-09-13T04:26:17.022Z,99160
2017-09-13T04:28:46.899Z,99154
2017-09-13T04:31:16.779Z,99122
2017-09-13T04:33:47.130Z,99133
2017-09-13T04:36:16.997Z,99121
2017-09-13T04:38:47.330Z,99110
2017-09-13T04:41:17.181Z,99104
2017-09-13T04:43:47.077Z,99116
2017-09-13T04:46:16.966Z,99098
2017-09-13T04:48:46.838Z,99095
2017-09-13T04:51:17.136Z,99079
2017-09-13T04:53:47.006Z,99073
2017-09-13T04:56:17.579Z,99059
2017-09-13T04:58:47.488Z,99047
2017-09-13T05:01:17.928Z,99038
2017-09-13T05:03:48.000Z,99033
2017-09-13T05:06:18.422Z,99021
2017-09-13T05:08:48.430Z,99025
2017-09-13T05:11:18.733Z,99003
2017-09-13T05:13:48.666Z,98990
2017-09-13T05:16:18.874Z,98977
2017-09-13T05:18:48.777Z,98966
2017-09-13T05:21:19.106Z,98939
2017-09-13T05:23:48.999Z,98942
2017-09-13T05:26:19.277Z,98921
2017-09-13T05:28:49.250Z,98905
2017-09-13T05:31:19.136Z,98906
2017-09-13T05:33:49.057Z,98675
2017-09-13T05:36:18.934Z,98882
2017-09-13T05:38:49.132Z,98877
2017-09-13T05:41:19.011Z,98845
2017-09-13T05:43:49.346Z,98846
2017-09-13T05:46:19.286Z,98868
2017-09-13T05:48:49.160Z,98834
2017-09-13T05:51:19.028Z,98833
2017-09-13T05:53:48.905Z,98827
2017-09-13T05:56:19.305Z,98814
2017-09-13T05:58:49.182Z,98808
2017-09-13T06:01:19.464Z,98799
2017-09-13T06:03:49.370Z,98780
2017-09-13T06:06:19.681Z,98774
2017-09-13T06:08:49.566Z,98761
2017-09-13T06:11:19.806Z,98748
2017-09-13T06:13:49.702Z,98732
2017-09-13T06:16:19.944Z,98723
2017-09-13T06:18:49.869Z,98716
2017-09-13T06:21:19.774Z,98717
2017-09-13T06:23:49.651Z,98700
2017-09-13T06:26:19.525Z,98687
2017-09-13T06:28:49.392Z,98672
2017-09-13T06:31:19.736Z,98674
2017-09-13T06:33:49.626Z,98666
2017-09-13T06:36:19.874Z,98666
2017-09-13T06:38:49.757Z,98656
2017-09-13T06:41:20.095Z,98642
2017-09-13T06:43:50.030Z,98626
2017-09-13T06:46:20.332Z,98631
2017-09-13T06:48:50.210Z,98620
2017-09-13T06:51:20.542Z,98611
2017-09-13T06:53:50.407Z,98613
2017-09-13T06:56:20.302Z,98609
2017-09-13T06:58:50.173Z,98579
2017-09-13T07:01:20.049Z,98581
2017-09-13T07:03:49.946Z,98565
2017-09-13T07:06:19.947Z,98564
2017-09-13T07:08:49.856Z,98561
2017-09-13T07:11:19.730Z,98438
2017-09-13T07:13:49.994Z,98550
2017-09-13T07:16:19.850Z,98543
2017-09-13T07:18:50.149Z,98529
2017-09-13T07:21:20.092Z,98535
2017-09-13T07:23:50.299Z,98525
2017-09-13T07:26:20.163Z,98524
2017-09-13T07:28:50.082Z,98519
2017-09-13T07:31:20.024Z,98506
2017-09-13T07:33:49.909Z,98507
2017-09-13T07:36:20.125Z,98490
2017-09-13T07:38:50.094Z,98495
2017-09-13T07:41:20.338Z,98474
2017-09-13T07:43:50.280Z,98466
2017-09-13T07:46:20.652Z,98461
2017-09-13T07:48:50.565Z,98448
2017-09-13T07:51:20.846Z,98459
2017-09-13T07:53:50.784Z,98447
2017-09-13T07:56:21.026Z,98453
2017-09-13T07:58:50.905Z,98456
2017-09-13T08:01:21.111Z,98437
2017-09-13T08:03:50.988Z,98445
2017-09-13T08:06:21.262Z,98449
2017-09-13T08:08:51.134Z,98441
2017-09-13T08:11:21.061Z,98438
2017-09-13T08:13:50.978Z,98428
2017-09-13T08:16:20.867Z,98412
2017-09-13T08:18:51.156Z,98419
2017-09-13T08:21:21.079Z,98397
2017-09-13T08:23:52.305Z,98399
2017-09-13T08:26:22.212Z,98301
2017-09-13T08:28:52.455Z,98396
2017-09-13T08:31:22.340Z,98399
2017-09-13T08:33:52.655Z,98386
2017-09-13T08:36:22.535Z,98389
2017-09-13T08:38:52.912Z,98393
2017-09-13T08:41:22.765Z,98386
2017-09-13T08:43:53.159Z,98370
2017-09-13T08:46:23.006Z,98365
2017-09-13T08:48:53.232Z,98353
2017-09-13T08:51:23.092Z,98359
2017-09-13T08:53:52.993Z,98347
2017-09-13T08:56:22.896Z,98350
2017-09-13T08:58:52.753Z,98349
2017-09-13T09:01:23.078Z,98351
2017-09-13T09:03:52.974Z,98335
2017-09-13T09:06:23.220Z,98327
2017-09-13T09:08:53.123Z,98323
2017-09-13T09:11:23.008Z,98308
2017-09-13T09:13:52.867Z,98295
2017-09-13T09:16:22.806Z,98308
2017-09-13T09:18:53.027Z,98312
2017-09-13T09:21:22.922Z,98305
2017-09-13T09:23:53.240Z,98286
2017-09-13T09:26:23.119Z,98279
2017-09-13T09:28:53.349Z,98189
2017-09-13T09:31:23.215Z,98288
2017-09-13T09:33:53.071Z,98292
2017-09-13T09:36:22.920Z,98278
2017-09-13T09:38:52.797Z,98271
2017-09-13T09:41:23.269Z,98251
2017-09-13T09:43:53.110Z,98252
2017-09-13T09:46:23.434Z,98261
2017-09-13T09:48:53.333Z,98235
2017-09-13T09:51:23.521Z,98236
2017-09-13T09:53:53.372Z,98238
2017-09-13T09:56:23.620Z,98242
2017-09-13T09:58:53.461Z,98224
2017-09-13T10:01:23.728Z,98222
2017-09-13T10:03:53.577Z,98214
2017-09-13T10:06:23.911Z,98222
2017-09-13T10:08:53.776Z,98217
2017-09-13T10:11:24.009Z,98200
2017-09-13T10:13:53.879Z,98202
2017-09-13T10:16:24.130Z,98186
2017-09-13T10:18:54.067Z,98192
2017-09-13T10:21:24.334Z,98204
2017-09-13T10:23:54.210Z,98206
2017-09-13T10:26:24.134Z,98219
2017-09-13T10:28:54.013Z,98203
2017-09-13T10:31:23.916Z,98211
2017-09-13T10:33:54.155Z,98238
2017-09-13T10:36:24.013Z,98229
2017-09-13T10:38:54.195Z,98219
2017-09-13T10:41:24.110Z,98194
2017-09-13T10:43:54.342Z,98193
2017-09-13T10:46:24.208Z,98222
2017-09-13T10:48:54.135Z,98210
2017-09-13T10:51:24.095Z,98215
2017-09-13T10:53:53.960Z,98207
2017-09-13T10:56:24.219Z,98214
2017-09-13T10:58:54.104Z,98211
2017-09-13T11:01:24.298Z,98216
2017-09-13T11:03:54.196Z,98219
2017-09-13T11:06:24.114Z,98216
2017-09-13T11:08:53.998Z,98227
2017-09-13T11:11:23.883Z,98243
2017-09-13T11:13:54.129Z,98231
2017-09-13T11:16:24.039Z,98243
2017-09-13T11:18:54.342Z,98238
2017-09-13T11:21:24.288Z,98238
2017-09-13T11:23:54.612Z,98250
2017-09-13T11:26:24.502Z,98251
2017-09-13T11:28:54.747Z,98247
2017-09-13T11:31:25.042Z,98258
2017-09-13T11:33:55.268Z,98268
2017-09-13T11:36:25.154Z,98264
2017-09-13T11:38:55.046Z,98266
2017-09-13T11:41:24.968Z,98272
2017-09-13T11:43:54.849Z,98258
2017-09-13T11:46:25.203Z,98271
2017-09-13T11:48:55.084Z,98269
2017-09-13T11:51:25.386Z,98286
2017-09-13T11:53:56.155Z,98270
2017-09-13T11:56:26.414Z,98283
2017-09-13T11:58:56.288Z,98270
2017-09-13T12:01:26.200Z,98272
2017-09-13T12:03:56.107Z,98274
2017-09-13T12:06:26.038Z,98279
2017-09-13T12:08:56.263Z,98281
2017-09-13T12:11:26.183Z,98269
2017-09-13T12:13:56.053Z,98294
2017-09-13T12:16:25.955Z,98292
2017-09-13T12:18:56.323Z,98282
2017-09-13T12:21:26.747Z,98262
2017-09-13T12:23:56.586Z,98297
2017-09-13T12:26:26.828Z,98289
2017-09-13T12:28:56.696Z,98295
2017-09-13T12:31:26.976Z,98338
2017-09-13T12:33:56.843Z,98345
2017-09-13T12:36:27.079Z,98357
2017-09-13T12:38:56.939Z,98379
2017-09-13T12:41:27.250Z,98391
2017-09-13T12:43:57.162Z,98386
2017-09-13T12:46:27.482Z,98382
2017-09-13T12:48:57.431Z,98393
2017-09-13T12:51:27.710Z,98390
2017-09-13T12:53:57.586Z,98381
2017-09-13T12:56:27.860Z,98404
2017-09-13T12:58:57.750Z,98395
2017-09-13T13:01:28.004Z,98393
2017-09-13T13:03:57.874Z,98375
2017-09-13T13:06:28.158Z,98371
2017-09-13T13:08:58.027Z,98403
2017-09-13T13:11:28.448Z,98393
2017-09-13T13:13:58.316Z,98382
2017-09-13T13:16:28.204Z,98378
2017-09-13T13:18:58.082Z,98382
2017-09-13T13:21:27.979Z,98403
2017-09-13T13:23:58.375Z,98389
2017-09-13T13:26:28.286Z,98378
2017-09-13T13:28:58.590Z,98387
2017-09-13T13:31:28.475Z,98389
2017-09-13T13:33:58.827Z,98394
2017-09-13T13:36:28.706Z,98387
2017-09-13T13:38:59.068Z,98375
2017-09-13T13:41:28.950Z,98374
2017-09-13T13:43:59.237Z,98379
2017-09-13T13:46:29.164Z,98346
2017-09-13T13:48:59.459Z,98371
2017-09-13T13:51:29.378Z,98384
2017-09-13T13:53:59.628Z,98175
2017-09-13T13:56:29.519Z,98160
2017-09-13T13:58:59.987Z,98378
2017-09-13T14:01:30.039Z,98398
2017-09-13T14:04:00.615Z,98399
2017-09-13T14:06:30.740Z,98400
2017-09-13T14:09:01.006Z,98415
2017-09-13T14:11:30.899Z,98394
2017-09-13T14:14:01.140Z,98242
2017-09-13T14:16:31.017Z,98403
2017-09-13T14:19:01.292Z,98417
2017-09-13T14:21:31.164Z,98411
2017-09-13T14:24:01.102Z,98424
2017-09-13T14:26:30.981Z,98433
2017-09-13T14:29:00.871Z,98441
2017-09-13T14:31:31.117Z,98411
2017-09-13T14:34:00.985Z,98429
2017-09-13T14:36:31.248Z,98445
2017-09-13T14:39:01.102Z,98440
2017-09-13T14:41:31.591Z,98450
2017-09-13T14:44:01.488Z,98441
2017-09-13T14:46:31.852Z,98439
2017-09-13T14:49:01.731Z,98443
2017-09-13T14:51:32.040Z,98428
2017-09-13T14:54:01.917Z,98442
2017-09-13T14:56:32.141Z,98436
2017-09-13T14:59:02.007Z,98433
2017-09-13T15:01:32.313Z,98426
2017-09-13T15:04:02.190Z,98455
2017-09-13T15:06:32.232Z,98454
2017-09-13T15:09:02.084Z,98450
2017-09-13T15:11:31.946Z,98457
2017-09-13T15:14:02.155Z,98473
2017-09-13T15:16:32.154Z,98465
2017-09-13T15:19:02.464Z,98474
2017-09-13T15:21:32.354Z,98481
2017-09-13T15:24:02.705Z,98484
2017-09-13T15:26:32.571Z,98467
2017-09-13T15:29:02.934Z,98497
2017-09-13T15:31:33.687Z,98520
2017-09-13T15:34:03.905Z,98514
2017-09-13T15:36:33.859Z,98526
2017-09-13T15:39:04.109Z,98503
2017-09-13T15:41:34.863Z,98511
2017-09-13T15:44:05.160Z,98513
2017-09-13T15:46:43.530Z,98510
2017-09-13T15:49:14.010Z,98520
2017-09-13T15:51:43.915Z,98522
2017-09-13T15:54:14.138Z,98527
2017-09-13T15:56:44.002Z,98513
2017-09-13T15:59:14.250Z,98521
2017-09-13T16:01:44.781Z,98528
2017-09-13T16:04:15.042Z,98537
2017-09-13T16:06:44.938Z,98525
2017-09-13T16:09:15.255Z,98558
2017-09-13T16:11:45.141Z,98578
2017-09-13T16:14:15.395Z,98564
2017-09-13T16:16:45.274Z,98573
2017-09-13T16:19:15.203Z,98548
2017-09-13T16:21:45.845Z,98574
2017-09-13T16:24:15.689Z,98583
2017-09-13T16:26:45.983Z,98575
2017-09-13T16:29:15.879Z,98581
2017-09-13T16:31:46.862Z,98584
2017-09-13T16:34:16.732Z,98580
2017-09-13T16:36:47.115Z,98584
2017-09-13T16:39:17.027Z,98585
2017-09-13T16:41:47.217Z,98580
2017-09-13T16:44:17.444Z,98578
2017-09-13T16:46:47.679Z,98583
2017-09-13T16:49:17.578Z,98573
2017-09-13T16:51:47.814Z,98599
2017-09-13T16:54:17.759Z,98594
2017-09-13T16:56:47.992Z,98596
2017-09-13T16:59:17.852Z,98579
2017-09-13T17:01:48.188Z,98584
2017-09-13T17:04:18.090Z,98595
2017-09-13T17:06:48.416Z,98606
2017-09-13T17:09:18.376Z,98602
2017-09-13T17:11:48.682Z,98611
2017-09-13T17:14:18.626Z,98612
2017-09-13T17:16:48.879Z,98599
2017-09-13T17:19:18.770Z,98605
2017-09-13T17:21:49.111Z,98605
2017-09-13T17:24:19.004Z,98615
2017-09-13T17:26:49.353Z,98602
2017-09-13T17:29:19.298Z,98594
2017-09-13T17:31:49.175Z,98602
2017-09-13T17:34:19.090Z,98609
2017-09-13T17:36:49.003Z,98617
2017-09-13T17:39:18.938Z,98613
2017-09-13T17:41:48.955Z,98640
2017-09-13T17:44:19.179Z,98648
2017-09-13T17:46:49.069Z,98646
2017-09-13T17:49:19.308Z,98607
2017-09-13T17:51:49.317Z,98630
2017-09-13T17:54:19.699Z,98649
2017-09-13T17:56:49.645Z,98639
2017-09-13T17:59:19.896Z,98627
2017-09-13T18:01:49.817Z,98620
2017-09-13T18:04:20.121Z,98644
2017-09-13T18:06:50.051Z,98655
2017-09-13T18:09:20.283Z,98634
2017-09-13T18:11:50.167Z,98645
2017-09-13T18:14:20.187Z,98655
2017-09-13T18:16:50.132Z,98640
2017-09-13T18:19:20.168Z,98643
2017-09-13T18:21:50.602Z,98647
2017-09-13T18:24:20.792Z,98652
2017-09-13T18:26:52.117Z,98650
2017-09-13T18:29:22.076Z,98661
2017-09-13T18:31:52.471Z,98668
2017-09-13T18:34:22.581Z,98667
2017-09-13T18:36:53.054Z,98656
2017-09-13T18:39:23.093Z,98672
2017-09-13T18:41:53.612Z,98670
2017-09-13T18:44:23.651Z,98658
2017-09-13T18:46:54.399Z,98678
2017-09-13T18:49:24.640Z,98670
2017-09-13T18:51:55.076Z,98664
2017-09-13T18:54:25.225Z,98673
2017-09-13T18:56:55.848Z,98673
2017-09-13T18:59:26.048Z,98666
2017-09-13T19:01:56.508Z,98675
2017-09-13T19:04:27.206Z,98672
2017-09-13T19:06:57.765Z,98674
2017-09-13T19:09:27.791Z,98667
2017-09-13T19:11:58.898Z,98675
2017-09-13T19:14:29.102Z,98382
2017-09-13T19:16:59.565Z,98620
2017-09-13T19:19:29.673Z,98674
2017-09-13T19:22:00.963Z,98545
2017-09-13T19:24:31.378Z,98671
2017-09-13T19:27:01.812Z,98667
2017-09-13T19:29:31.864Z,98665
2017-09-13T19:32:03.094Z,98665
2017-09-13T19:34:33.274Z,98670
2017-09-13T19:37:05.595Z,98668
2017-09-13T19:39:35.712Z,98662
2017-09-13T19:42:06.176Z,98690
2017-09-13T19:44:36.255Z,98671
2017-09-13T19:47:06.735Z,98679
2017-09-13T19:49:36.729Z,98671
2017-09-13T19:52:07.249Z,98675
2017-09-13T19:54:37.263Z,98674
2017-09-13T19:57:07.776Z,98676
2017-09-13T19:59:37.973Z,98662
2017-09-13T20:02:08.483Z,98672
2017-09-13T20:04:38.527Z,98736
2017-09-13T20:07:08.853Z,98678
2017-09-13T20:09:38.847Z,98679
2017-09-13T20:12:09.168Z,98678
2017-09-13T20:14:39.067Z,98677
2017-09-13T20:17:09.435Z,98685
2017-09-13T20:19:39.349Z,98663
2017-09-13T20:22:09.702Z,98678
2017-09-13T20:24:40.496Z,98674
2017-09-13T20:27:10.511Z,98690
2017-09-13T20:29:40.531Z,98697
2017-09-13T20:32:10.926Z,98689
2017-09-13T20:34:40.792Z,98680
2017-09-13T20:37:11.204Z,98683
2017-09-13T20:39:41.159Z,98682
2017-09-13T20:42:11.440Z,98681
2017-09-13T20:44:41.454Z,98703
2017-09-13T20:47:11.712Z,98694
2017-09-13T20:49:41.728Z,98691
2017-09-13T20:52:12.008Z,98696
2017-09-13T20:54:41.928Z,98690
2017-09-13T20:57:12.271Z,98694
2017-09-13T20:59:42.260Z,98687
2017-09-13T21:02:12.592Z,98690
2017-09-13T21:04:42.504Z,98682
2017-09-13T21:07:12.737Z,98687
2017-09-13T21:09:42.649Z,98579
2017-09-13T21:12:12.922Z,98693
2017-09-13T21:14:42.903Z,98691
2017-09-13T21:17:13.215Z,98695
2017-09-13T21:19:43.100Z,98700
2017-09-13T21:22:13.560Z,98699
2017-09-13T21:24:43.545Z,98702
2017-09-13T21:27:13.946Z,98683
2017-09-13T21:29:43.836Z,98708
2017-09-13T21:32:14.274Z,98716
2017-09-13T21:34:44.203Z,98716
2017-09-13T21:37:14.524Z,98707
2017-09-13T21:39:44.434Z,98707
2017-09-13T21:42:14.671Z,98713
2017-09-13T21:44:44.569Z,98710
2017-09-13T21:47:14.899Z,98504
2017-09-13T21:49:44.923Z,98701
2017-09-13T21:52:15.169Z,98694
2017-09-13T21:54:45.054Z,98699
2017-09-13T21:57:15.280Z,98700
2017-09-13T21:59:45.193Z,98698
2017-09-13T22:02:15.123Z,98694
2017-09-13T22:04:45.345Z,98674
2017-09-13T22:07:15.247Z,98685
2017-09-13T22:09:45.166Z,98699
2017-09-13T22:12:15.404Z,98698
2017-09-13T22:14:45.261Z,98701
2017-09-13T22:17:15.170Z,98706
2017-09-13T22:19:45.532Z,98704
2017-09-13T22:22:15.511Z,98699
2017-09-13T22:24:45.858Z,98697
2017-09-13T22:27:15.844Z,98693
2017-09-13T22:29:46.173Z,98691
2017-09-13T22:32:16.194Z,98698
2017-09-13T22:34:46.422Z,98699
2017-09-13T22:37:16.329Z,98701
2017-09-13T22:39:46.658Z,98701
2017-09-13T22:42:16.622Z,98694
2017-09-13T22:44:46.961Z,98685
2017-09-13T22:47:16.906Z,98688
2017-09-13T22:49:47.331Z,98689
2017-09-13T22:52:17.273Z,98688
2017-09-13T22:54:47.167Z,98687
2017-09-13T22:57:17.374Z,98695
2017-09-13T22:59:47.259Z,98690
2017-09-13T23:02:17.605Z,98697
2017-09-13T23:04:47.484Z,98703
2017-09-13T23:07:17.749Z,98699
2017-09-13T23:09:47.615Z,98696
2017-09-13T23:12:17.968Z,98705
2017-09-13T23:14:47.821Z,98698
2017-09-13T23:17:18.107Z,98695
2017-09-13T23:19:47.990Z,98697
2017-09-13T23:22:18.271Z,98692
2017-09-13T23:24:48.192Z,98708
2017-09-13T23:27:18.093Z,98698
2017-09-13T23:29:48.334Z,98701
2017-09-13T23:32:18.206Z,98703
2017-09-13T23:34:48.127Z,98674
2017-09-13T23:37:18.010Z,98706
2017-09-13T23:39:47.891Z,98711
2017-09-13T23:42:17.783Z,98715
2017-09-13T23:44:47.675Z,98711
2017-09-13T23:47:17.939Z,98704
2017-09-13T23:49:47.907Z,98712
2017-09-13T23:52:18.365Z,98710
2017-09-13T23:54:48.291Z,98704
2017-09-13T23:57:18.545Z,98703
2017-09-13T23:59:48.464Z,98696
